LEGELFML

Guest
Details From LEGE - Girona
To LFML - Marseille/provence
Flight Number -
Tags Generated
Created
Modified
Stats Distance 142 nm / 264 km
Max Altitude 0 ft / 0 m
Waypoints 2
Social Downloads 1
Likes 0
Share VATSIM

Download

Looking for another format? Having issues loading an existing format? Contact us
Advertisement - Login to hide

Notes

Generated

Route

LEGE LFML

ID Type Via Altitude Latitude Longitude Leg Dist Tot Dist Heading (true) Name
O LEGE APT - 0 ft / 0 m 41.89491˚ 2.75826˚ - 0 nm - -
O LFML APT - 0 ft / 0 m 43.44093˚ 5.20362˚ 142 nm 142 nm 48° / 50° -

Altitude Profile

Advertisement - Login to hide

LEGE

Details ICAO LEGE (GRO)
Name Girona
Region Spain
Timezone Europe/Madrid (UTC+1.0)
Stats Elevation 403 ft / 123 m (AMSL)
Location 41.905202° 2.762133°
Runways 1
Magnetic Variation 0.978° E

METAR

LEGE 161230Z 19004KT 150V230 9999 FEW030 11/00 Q1016

Decode

TAF

TAF LEGE 161100Z 1612/1712 VRB03KT 9999 FEW030 TX13/1612Z TNM02/1706Z

Decode

Departure Runways

ID Width Length Bearing (true) Bearing (mag) Surface Threshold Offset Overrun Length
02 148 ft / 45 m 7,880 ft / 2,402 m 15.50° 14.52° Asphalt 0 ft / 0 m 210 ft / 64 m
20 148 ft / 45 m 7,880 ft / 2,402 m 195.50° 194.52° Asphalt 0 ft / 0 m 200 ft / 61 m

LFML

Details ICAO LFML (MRS)
Name Marseille Provence
Region France
Timezone Europe/Paris (UTC+1.0)
Stats Elevation 74 ft / 23 m (AMSL)
Location 43.435892° 5.213282°
Runways 2
Magnetic Variation 1.553° E

METAR

LFML 161230Z AUTO 32015KT 9999 FEW038 09/00 Q1012 TEMPO 32028G38KT

Decode

TAF

TAF TAF LFML 160800Z 1609/1715 28015KT CAVOK BECMG 1609/1611 31023G33KT TEMPO 1613/1616 32028G38KT PROB40 TEMPO 1620/1624 32030G40KT TEMPO 1712/1715 33028G38KT TX09/1613Z TN04/1706Z

Decode

Destination Runways

ID Width Length Bearing (true) Bearing (mag) Surface Threshold Offset Overrun Length
13L 148 ft / 45 m 11,478 ft / 3,499 m 133.99° 132.44° Asphalt 1,115 ft / 340 m 0 ft / 0 m
13R 148 ft / 45 m 7,981 ft / 2,433 m 134.90° 133.35° Asphalt 0 ft / 0 m 0 ft / 0 m
31L 148 ft / 45 m 7,981 ft / 2,433 m 314.91° 313.36° Asphalt 344 ft / 105 m 0 ft / 0 m
31R 148 ft / 45 m 11,478 ft / 3,499 m 314.01° 312.46° Asphalt 2,165 ft / 660 m 0 ft / 0 m

Approach Navaids

Runway Type Ident Frequency Range Bearing (true) Bearing (mag) Slope Elevation
13L Localiser ML 110.30 MHz 27 nm / 50 km 134.12° 132.57° - 74 ft / 23 m (AMSL)
13L Glidescope ML 110.30 MHz 27 nm / 50 km 134.02° 132.47° 3.00° 10 ft / 3 m (AMSL)
13L DME ML 110.30 MHz 27 nm / 50 km - - - 10 ft / 3 m (AMSL)
13R Localiser MCE 108.30 MHz 27 nm / 50 km 134.92° 133.37° - 74 ft / 23 m (AMSL)
13R Glidescope MCE 108.30 MHz 10 nm / 19 km 134.91° 133.35° 3.00° 74 ft / 23 m (AMSL)
13R DME MCE 108.30 MHz 27 nm / 50 km - - - 10 ft / 3 m (AMSL)
31R Localiser MPV 111.15 MHz 27 nm / 50 km 314.12° 312.57° - 74 ft / 23 m (AMSL)
31R Glidescope MPV 111.15 MHz 27 nm / 50 km 314.02° 312.47° 4.00° 10 ft / 3 m (AMSL)
31R DME MPV 111.15 MHz 27 nm / 50 km - - - 10 ft / 3 m (AMSL)

Popular Alternatives